Middletown, Maryland
Current Conditions -  °F | °C
As of 4:30 AM on Thursday 23 Oct 2014 (Local Time) from KFDK Reporting Station
Overcast Overcast  
Wind Chill: 55°   Ceiling: 3400
Heat Index: 55°   Visibility: 10mi
Dew Point: 43°   Wind: 9mph
Humidity: 63%   Direction: 320°NW
Pressure: 29.93"   Gusts: NA
Location:  39.44°N, 77.54°W
Report Text: KFDK 230830Z AUTO 32008KT 10SM OVC034 13/06 A2993 RMK AO2 LTG DSNT E
Loading
Personal Weather Stations






























Interactive Weather Map
Tropical Storm Tracking
New forecast layout! Learn more

10-Day Weather Forecast

Advertisements
Track Severe Weather on mobile